Time;durP1;ratioP1;P1;durP2;ratioP2;P2;SDS_P1;SDS_P2;PMS_P1;PMS_P2;Temp;Humidity;BMP_temperature;BMP_pressure;BME280_temperature;BME280_humidity;BME280_pressure;Samples;Min_cycle;Max_cycle;Signal;HPM_P1;HPM_P2
2023/12/08 00:02:21;;;;;;;47.47;36.90;;;;;;;4.29;67.39;99439.50;4505275;31;34153;-87
2023/12/08 00:04:49;;;;;;;29.05;15.80;;;;;;;3.98;68.32;99447.56;4507708;31;33857;-86
2023/12/08 00:07:16;;;;;;;39.50;31.23;;;;;;;4.35;67.70;99448.31;4503671;31;33733;-85
2023/12/08 00:09:44;;;;;;;40.72;30.65;;;;;;;4.09;68.01;99448.91;4514338;31;32666;-87
2023/12/08 00:12:12;;;;;;;27.83;13.57;;;;;;;4.05;68.11;99455.62;4507229;31;33949;-86
2023/12/08 00:14:39;;;;;;;26.05;13.35;;;;;;;4.32;67.57;99450.78;4505786;31;33289;-86
2023/12/08 00:17:07;;;;;;;36.78;29.63;;;;;;;4.43;66.98;99456.34;4505272;31;33102;-85
2023/12/08 00:19:35;;;;;;;39.58;30.55;;;;;;;4.22;67.16;99456.34;4508469;31;34325;-87
2023/12/08 00:22:02;;;;;;;25.30;13.18;;;;;;;4.08;67.50;99460.87;4504829;31;33863;-88
2023/12/08 00:24:33;;;;;;;34.42;27.48;;;;;;;4.35;67.25;99461.16;4504369;31;33549;-86
2023/12/08 00:27:10;;;;;;;33.25;28.05;;;;;;;4.13;66.88;99454.25;4508654;31;33045;-86
2023/12/08 00:29:38;;;;;;;23.20;12.50;;;;;;;4.13;66.60;99453.38;4488174;31;32976;-89
2023/12/08 00:32:06;;;;;;;20.95;11.80;;;;;;;4.25;66.60;99453.91;4518547;31;34013;-89
2023/12/08 00:34:34;;;;;;;36.72;27.17;;;;;;;4.37;66.19;99459.53;4506022;31;34042;-87
2023/12/08 00:37:01;;;;;;;29.65;24.27;;;;;;;4.13;65.82;99469.66;4512952;31;34345;-89
2023/12/08 00:39:29;;;;;;;28.02;22.58;;;;;;;3.99;66.47;99473.31;4502927;31;34341;-88
2023/12/08 00:41:58;;;;;;;19.37;11.25;;;;;;;3.78;66.89;99477.47;4508641;31;34102;-88
2023/12/08 00:44:26;;;;;;;28.58;23.90;;;;;;;4.25;65.66;99460.72;4507910;31;33943;-88
2023/12/08 00:46:53;;;;;;;27.55;22.58;;;;;;;4.04;65.40;99474.38;4508156;31;33102;-89
2023/12/08 00:49:21;;;;;;;29.33;22.80;;;;;;;3.79;66.03;99472.44;4506513;31;35014;-88
2023/12/08 00:51:48;;;;;;;24.80;21.52;;;;;;;3.80;66.12;99476.75;4500248;31;34451;-88
2023/12/08 00:54:16;;;;;;;17.37;8.90;;;;;;;3.83;65.89;99471.75;4485602;31;34342;-87
2023/12/08 00:56:43;;;;;;;25.92;21.60;;;;;;;4.17;64.77;99475.81;4512242;31;33208;-87
2023/12/08 00:59:13;;;;;;;22.20;11.02;;;;;;;3.93;64.90;99484.97;4512051;31;34498;-86
2023/12/08 01:01:43;;;;;;;26.02;21.33;;;;;;;4.11;64.61;99481.53;4488834;31;34567;-85
2023/12/08 01:04:11;;;;;;;29.70;23.67;;;;;;;3.85;64.96;99487.22;4508923;31;33538;-85
2023/12/08 01:06:39;;;;;;;27.02;23.08;;;;;;;3.69;65.58;99487.34;4500635;31;33350;-89
2023/12/08 01:09:06;;;;;;;22.58;11.38;;;;;;;3.60;65.97;99495.50;4499530;31;34577;-87
2023/12/08 01:11:34;;;;;;;34.83;27.75;;;;;;;4.06;64.66;99484.72;4500726;31;33865;-87
2023/12/08 01:14:01;;;;;;;20.17;11.57;;;;;;;3.66;65.22;99485.50;4498655;31;33845;-86
2023/12/08 01:16:29;;;;;;;28.62;24.42;;;;;;;3.85;65.14;99485.50;4507969;31;33478;-86
2023/12/08 01:18:56;;;;;;;27.33;12.13;;;;;;;3.78;64.60;99486.03;4509555;31;33058;-85
2023/12/08 01:21:24;;;;;;;34.00;26.73;;;;;;;3.89;64.40;99489.97;4510529;31;34024;-87
2023/12/08 01:23:52;;;;;;;22.92;11.70;;;;;;;3.81;64.30;99493.00;4512412;31;34659;-86
2023/12/08 01:26:20;;;;;;;22.10;12.25;;;;;;;4.07;63.89;99491.59;4513169;31;33218;-85
2023/12/08 01:28:47;;;;;;;26.27;13.02;;;;;;;4.11;63.70;99496.94;4488319;31;34407;-87
2023/12/08 01:31:15;;;;;;;24.20;13.93;;;;;;;3.99;64.26;99491.28;4492201;31;32957;-87
2023/12/08 01:33:42;;;;;;;22.62;13.30;;;;;;;4.03;64.45;99497.41;4513775;31;34108;-87
2023/12/08 01:36:10;;;;;;;36.67;28.77;;;;;;;4.03;64.94;99503.41;4480236;31;32993;-86
2023/12/08 01:38:58;;;;;;;27.40;13.88;;;;;;;3.94;65.03;99495.31;4488102;31;33311;-86
2023/12/08 01:41:25;;;;;;;38.63;29.92;;;;;;;4.01;65.44;99496.44;4497915;31;34545;-86
2023/12/08 01:43:53;;;;;;;39.22;30.65;;;;;;;3.86;65.79;99494.09;4506921;31;34434;-86
2023/12/08 01:46:21;;;;;;;29.73;15.50;;;;;;;3.96;65.65;99495.38;4485821;31;32676;-85
2023/12/08 01:48:48;;;;;;;39.92;30.67;;;;;;;4.14;65.66;99488.50;4488326;31;33522;-86
2023/12/08 01:51:16;;;;;;;42.85;32.80;;;;;;;3.90;66.50;99485.72;4486369;31;34040;-87
2023/12/08 01:53:45;;;;;;;34.05;16.48;;;;;;;3.72;67.59;99485.78;4492195;31;34264;-88
2023/12/08 01:56:13;;;;;;;41.45;32.22;;;;;;;4.18;66.86;99477.56;4488614;31;32574;-87
2023/12/08 01:58:41;;;;;;;33.20;17.33;;;;;;;4.02;66.94;99478.59;4500026;31;34729;-86
2023/12/08 02:01:10;;;;;;;42.83;33.50;;;;;;;4.02;67.31;99475.16;4502530;31;34612;-88
2023/12/08 02:03:39;;;;;;;32.83;16.00;;;;;;;3.80;67.89;99489.56;4513668;31;33448;-88
2023/12/08 02:06:07;;;;;;;42.60;33.47;;;;;;;2.93;71.32;99488.09;4492447;31;33653;-88
2023/12/08 02:08:35;;;;;;;44.83;33.50;;;;;;;3.56;68.79;99485.88;4513010;31;34685;-87
2023/12/08 02:11:03;;;;;;;43.25;33.67;;;;;;;3.51;68.86;99482.25;4504045;31;34154;-88
2023/12/08 02:13:30;;;;;;;48.20;35.67;;;;;;;3.87;68.03;99480.47;4511726;31;34488;-88
2023/12/08 02:16:04;;;;;;;37.65;16.08;;;;;;;3.83;67.86;99473.47;4497888;31;33200;-87
2023/12/08 02:18:32;;;;;;;50.22;38.65;;;;;;;3.88;68.04;99475.41;4493856;31;34636;-87
2023/12/08 02:21:01;;;;;;;42.95;34.42;;;;;;;3.60;68.59;99480.13;4491865;31;33818;-87
2023/12/08 02:23:29;;;;;;;27.60;15.02;;;;;;;3.84;68.02;99465.81;4498425;31;33115;-88
2023/12/08 02:25:56;;;;;;;33.42;15.57;;;;;;;4.04;67.69;99468.37;4513024;31;33258;-86
2023/12/08 02:28:24;;;;;;;36.83;29.77;;;;;;;3.93;67.99;99467.03;4510228;31;33211;-86
2023/12/08 02:30:54;;;;;;;38.47;30.48;;;;;;;3.88;68.01;99472.84;4505890;31;34278;-87
2023/12/08 02:33:28;;;;;;;35.60;16.10;;;;;;;3.86;68.28;99471.91;4488128;31;34789;-87
2023/12/08 02:35:56;;;;;;;42.42;32.63;;;;;;;4.13;67.73;99471.34;4513420;31;33673;-88
2023/12/08 02:38:24;;;;;;;40.42;31.05;;;;;;;3.33;69.64;99467.81;4485709;31;32553;-86
2023/12/08 02:40:52;;;;;;;28.20;14.20;;;;;;;3.44;69.31;99478.53;4494101;31;33706;-88
2023/12/08 02:43:19;;;;;;;39.75;30.20;;;;;;;4.07;67.78;99478.78;4482341;31;32600;-87
2023/12/08 02:45:47;;;;;;;29.92;15.10;;;;;;;3.77;68.36;99475.72;4501841;31;33326;-86
2023/12/08 02:48:14;;;;;;;38.80;31.65;;;;;;;3.75;69.00;99475.69;4494366;31;33649;-87
2023/12/08 02:50:43;;;;;;;25.52;13.62;;;;;;;3.33;70.11;99479.72;4510977;31;34140;-86
2023/12/08 02:53:11;;;;;;;26.40;13.82;;;;;;;3.32;70.21;99489.09;4500260;31;34697;-86
2023/12/08 02:55:38;;;;;;;36.30;28.83;;;;;;;3.13;70.76;99491.59;4500822;31;34475;-87
2023/12/08 02:58:06;;;;;;;34.28;27.90;;;;;;;3.32;70.02;99478.84;4501388;31;33523;-87
2023/12/08 03:00:34;;;;;;;20.73;10.57;;;;;;;3.24;70.09;99477.59;4490860;31;33885;-86
2023/12/08 03:03:01;;;;;;;22.25;11.40;;;;;;;2.58;72.01;99483.84;4490029;31;33242;-86
2023/12/08 03:05:29;;;;;;;31.35;25.02;;;;;;;2.88;71.75;99487.88;4483680;31;32904;-88
2023/12/08 03:07:56;;;;;;;21.10;10.40;;;;;;;3.05;70.90;99485.25;4509090;31;33366;-86
2023/12/08 03:10:24;;;;;;;20.90;9.80;;;;;;;3.02;70.58;99487.66;4490687;31;35201;-88
2023/12/08 03:12:52;;;;;;;21.25;9.48;;;;;;;3.25;70.21;99481.03;4509515;31;33572;-88
2023/12/08 03:15:19;;;;;;;31.15;25.45;;;;;;;3.15;70.21;99475.50;4514580;31;33494;-88
2023/12/08 03:17:47;;;;;;;22.55;12.10;;;;;;;3.23;69.79;99475.00;4492392;31;33639;-87
2023/12/08 03:20:15;;;;;;;23.10;10.60;;;;;;;3.83;68.31;99479.47;4489726;31;33643;-87
2023/12/08 03:22:42;;;;;;;30.88;24.77;;;;;;;3.95;67.58;99474.00;4489735;31;32929;-87
2023/12/08 03:25:10;;;;;;;23.90;12.30;;;;;;;3.66;68.11;99476.13;4499462;31;33183;-88
2023/12/08 03:27:37;;;;;;;30.35;24.77;;;;;;;3.97;67.70;99472.34;4499051;31;33466;-86
2023/12/08 03:30:06;;;;;;;25.05;10.70;;;;;;;3.78;67.56;99474.91;4512516;31;34800;-88
2023/12/08 03:32:33;;;;;;;29.02;23.02;;;;;;;3.81;67.88;99470.81;4500060;31;33516;-87
2023/12/08 03:35:00;;;;;;;26.65;21.67;;;;;;;3.76;67.66;99479.12;4506104;31;33207;-86
2023/12/08 03:37:28;;;;;;;19.25;10.68;;;;;;;3.72;67.69;99479.78;4501576;31;34664;-87
2023/12/08 03:39:56;;;;;;;21.15;10.63;;;;;;;3.91;67.11;99469.53;4513668;31;33959;-86
2023/12/08 03:42:23;;;;;;;26.75;20.95;;;;;;;4.07;66.59;99473.66;4513261;31;34531;-85
2023/12/08 03:44:51;;;;;;;24.67;20.58;;;;;;;3.84;66.40;99476.06;4489509;31;33145;-87
2023/12/08 03:47:18;;;;;;;17.95;9.50;;;;;;;3.74;66.55;99473.91;4508011;31;33633;-85
2023/12/08 03:49:46;;;;;;;23.40;19.40;;;;;;;4.08;65.14;99470.25;4514211;31;33835;-86
2023/12/08 03:52:14;;;;;;;17.08;9.65;;;;;;;4.01;64.31;99473.38;4496278;31;33842;-86
2023/12/08 03:54:41;;;;;;;23.35;19.48;;;;;;;4.05;64.04;99465.91;4504413;31;32871;-87
2023/12/08 03:57:09;;;;;;;18.60;9.40;;;;;;;3.58;64.62;99461.22;4474241;31;33680;-86
2023/12/08 03:59:37;;;;;;;17.65;9.45;;;;;;;3.93;63.93;99454.19;4490171;31;33636;-85
2023/12/08 04:02:04;;;;;;;18.58;9.80;;;;;;;3.95;63.36;99455.16;4493588;31;34017;-87
2023/12/08 04:04:32;;;;;;;22.40;18.67;;;;;;;3.96;63.30;99455.22;4500600;31;34344;-86
2023/12/08 04:07:00;;;;;;;19.23;10.18;;;;;;;3.58;64.24;99462.09;4502305;31;33711;-86
2023/12/08 04:09:27;;;;;;;23.30;19.50;;;;;;;3.92;63.65;99457.59;4513319;31;34033;-87
2023/12/08 04:11:56;;;;;;;25.90;20.48;;;;;;;3.64;64.10;99458.94;4502837;31;33688;-86
2023/12/08 04:14:23;;;;;;;16.85;9.15;;;;;;;3.45;65.00;99466.56;4498752;31;34469;-86
2023/12/08 04:16:51;;;;;;;18.02;10.75;;;;;;;3.90;64.32;99450.72;4501987;31;34848;-88
2023/12/08 04:19:20;;;;;;;26.65;21.15;;;;;;;3.87;64.36;99453.13;4492421;31;33730;-87
2023/12/08 04:21:48;;;;;;;19.20;9.30;;;;;;;3.58;65.45;99445.84;4508935;31;34276;-87
2023/12/08 04:24:15;;;;;;;27.83;21.98;;;;;;;3.58;65.68;99448.41;4495308;31;32987;-90
2023/12/08 04:26:43;;;;;;;20.65;10.23;;;;;;;3.58;65.60;99436.44;4512857;31;33567;-87
2023/12/08 04:29:11;;;;;;;24.60;20.25;;;;;;;3.84;65.45;99429.91;4484489;31;33942;-88
2023/12/08 04:31:38;;;;;;;23.90;19.27;;;;;;;3.57;66.19;99434.72;4502324;31;34218;-89
2023/12/08 04:34:06;;;;;;;16.67;8.40;;;;;;;3.31;67.06;99442.91;4499051;31;33468;-87
2023/12/08 04:36:34;;;;;;;13.77;8.00;;;;;;;3.52;67.12;99437.84;4500248;31;33695;-86
2023/12/08 04:39:02;;;;;;;21.80;18.58;;;;;;;3.85;66.33;99441.91;4509537;31;33654;-87
2023/12/08 04:41:29;;;;;;;22.62;17.98;;;;;;;3.46;67.17;99440.16;4489402;31;34511;-87
2023/12/08 04:43:57;;;;;;;15.15;8.18;;;;;;;3.67;66.97;99435.97;4490864;31;34640;-87
2023/12/08 04:46:24;;;;;;;21.67;18.02;;;;;;;3.81;67.05;99432.34;4503897;31;33960;-89
2023/12/08 04:48:52;;;;;;;23.52;18.73;;;;;;;3.55;67.45;99435.44;4507088;31;33978;-89
2023/12/08 04:51:20;;;;;;;22.50;17.95;;;;;;;3.51;67.78;99429.28;4511957;31;33720;-88
2023/12/08 04:53:47;;;;;;;15.63;8.52;;;;;;;3.57;67.66;99418.44;4512519;31;33545;-88
2023/12/08 04:56:15;;;;;;;21.37;18.25;;;;;;;3.83;67.17;99422.16;4502794;31;33470;-88
2023/12/08 04:58:43;;;;;;;23.77;18.58;;;;;;;3.61;67.70;99422.91;4505258;31;33625;-88
2023/12/08 05:01:14;;;;;;;14.80;8.10;;;;;;;3.76;67.29;99420.13;4499583;31;34772;-89
2023/12/08 05:03:41;;;;;;;16.05;8.23;;;;;;;3.85;67.21;99425.66;4486657;31;33505;-86
2023/12/08 05:06:09;;;;;;;23.50;19.65;;;;;;;3.76;67.48;99426.16;4512469;31;34118;-85
2023/12/08 05:08:38;;;;;;;24.30;18.60;;;;;;;3.53;68.06;99431.94;4509697;31;33974;-85
2023/12/08 05:11:07;;;;;;;22.02;17.80;;;;;;;3.48;68.35;99439.41;4504192;31;33455;-89
2023/12/08 05:13:35;;;;;;;16.33;7.85;;;;;;;3.80;67.51;99440.84;4498705;31;33294;-86
2023/12/08 05:16:02;;;;;;;15.23;8.18;;;;;;;3.95;66.93;99443.22;4502526;31;33285;-88
2023/12/08 05:18:30;;;;;;;20.52;16.90;;;;;;;4.00;66.83;99438.28;4508740;31;34014;-86
2023/12/08 05:20:58;;;;;;;17.25;8.02;;;;;;;3.82;67.11;99446.91;4508265;31;33530;-89
2023/12/08 05:23:25;;;;;;;20.80;17.20;;;;;;;3.95;67.15;99447.47;4490408;31;33350;-87
2023/12/08 05:25:53;;;;;;;20.92;10.30;;;;;;;3.38;68.63;99463.75;4484425;31;33706;-86
2023/12/08 05:28:20;;;;;;;17.98;9.15;;;;;;;3.66;67.92;99449.59;4484350;31;34699;-86
2023/12/08 05:30:48;;;;;;;21.40;17.98;;;;;;;4.05;66.97;99460.75;4471793;31;34092;-86
2023/12/08 05:33:17;;;;;;;18.83;9.15;;;;;;;3.96;66.76;99459.47;4459495;31;32781;-86
2023/12/08 05:35:44;;;;;;;24.85;19.02;;;;;;;4.33;66.07;99451.66;4465170;31;33886;-86
2023/12/08 05:38:12;;;;;;;18.05;9.95;;;;;;;3.94;66.93;99451.72;4511871;31;33892;-88
2023/12/08 05:40:40;;;;;;;17.05;10.13;;;;;;;4.05;67.06;99458.19;4509709;31;34028;-88
2023/12/08 05:43:07;;;;;;;25.98;21.85;;;;;;;4.10;67.08;99463.53;4505523;31;33064;-88
2023/12/08 05:45:34;;;;;;;28.80;24.15;;;;;;;3.82;67.82;99462.28;4498073;31;33410;-85
2023/12/08 05:48:02;;;;;;;25.70;11.57;;;;;;;3.75;68.21;99455.16;4505574;31;33935;-85
2023/12/08 05:50:30;;;;;;;24.00;13.77;;;;;;;4.04;67.78;99456.41;4490872;31;33959;-86
2023/12/08 05:52:57;;;;;;;31.77;27.00;;;;;;;4.11;67.75;99455.00;4505088;31;34417;-87
2023/12/08 05:55:25;;;;;;;20.95;11.65;;;;;;;3.95;68.15;99457.72;4498196;31;34637;-87
2023/12/08 05:57:53;;;;;;;31.05;26.12;;;;;;;4.43;67.06;99452.91;4501036;31;34191;-87
2023/12/08 06:00:20;;;;;;;33.08;25.70;;;;;;;4.22;67.27;99447.75;4509248;31;34052;-84
2023/12/08 06:02:48;;;;;;;32.05;26.35;;;;;;;4.13;67.22;99453.38;4500611;31;33542;-87
2023/12/08 06:05:16;;;;;;;24.98;12.52;;;;;;;3.95;67.75;99457.72;4507145;31;34717;-86
2023/12/08 06:07:43;;;;;;;34.15;27.42;;;;;;;4.37;66.77;99456.09;4501044;31;35109;-87
2023/12/08 06:10:14;;;;;;;25.73;12.85;;;;;;;3.95;67.65;99453.47;4501884;31;34572;-86
2023/12/08 06:12:41;;;;;;;32.83;26.95;;;;;;;4.23;66.93;99450.38;4512816;31;33440;-86
2023/12/08 06:15:10;;;;;;;25.88;12.30;;;;;;;4.07;67.24;99461.69;4504304;31;34612;-86
2023/12/08 06:17:38;;;;;;;35.72;28.65;;;;;;;4.26;66.46;99463.34;4494836;31;34967;-88
2023/12/08 06:20:08;;;;;;;24.30;12.43;;;;;;;3.87;67.32;99470.22;4488459;31;33607;-88
2023/12/08 06:22:36;;;;;;;37.72;29.48;;;;;;;4.30;66.51;99472.94;4500940;31;32141;-87
2023/12/08 06:25:05;;;;;;;42.83;30.88;;;;;;;3.98;66.79;99468.09;4509335;31;34399;-86
2023/12/08 06:27:33;;;;;;;26.92;13.18;;;;;;;3.88;67.04;99477.09;4509263;31;35004;-88
2023/12/08 06:30:02;;;;;;;35.05;28.50;;;;;;;3.70;67.77;99481.41;4494301;31;33253;-86
2023/12/08 06:32:30;;;;;;;37.05;29.87;;;;;;;3.84;67.16;99464.94;4506889;31;33493;-89
2023/12/08 06:34:58;;;;;;;39.00;30.52;;;;;;;3.81;67.40;99473.38;4514883;31;34739;-86
2023/12/08 06:37:25;;;;;;;42.10;32.03;;;;;;;3.45;68.42;99474.28;4510807;31;34808;-86
2023/12/08 06:39:53;;;;;;;29.00;15.07;;;;;;;3.44;68.59;99472.53;4506415;31;32281;-88
2023/12/08 06:42:21;;;;;;;42.17;33.75;;;;;;;3.93;67.45;99464.47;4508885;31;34072;-87
2023/12/08 06:44:49;;;;;;;29.55;16.55;;;;;;;3.71;68.09;99462.63;4509380;31;32920;-88
2023/12/08 06:47:17;;;;;;;42.70;33.65;;;;;;;4.04;67.39;99470.94;4507905;31;35247;-88
2023/12/08 06:49:44;;;;;;;24.63;13.20;;;;;;;3.82;67.81;99475.13;4491152;31;33867;-88
2023/12/08 06:52:12;;;;;;;40.63;31.52;;;;;;;4.13;67.22;99458.53;4506361;31;32844;-86
2023/12/08 06:54:39;;;;;;;61.47;44.97;;;;;;;3.94;67.52;99476.47;4493610;31;33768;-87
2023/12/08 06:57:08;;;;;;;44.97;34.45;;;;;;;3.58;68.32;99471.47;4502321;31;33945;-86
2023/12/08 06:59:35;;;;;;;60.65;45.00;;;;;;;3.84;67.70;99477.75;4510091;31;33775;-89
2023/12/08 07:02:03;;;;;;;56.45;42.47;;;;;;;3.87;67.48;99473.66;4506314;31;33405;-88
2023/12/08 07:04:31;;;;;;;42.05;20.52;;;;;;;3.92;67.47;99480.66;4504034;31;33948;-87
2023/12/08 07:06:59;;;;;;;35.60;17.40;;;;;;;4.34;66.60;99473.94;4497696;31;34867;-88
2023/12/08 07:09:27;;;;;;;49.78;36.75;;;;;;;4.36;66.64;99483.47;4505416;31;33516;-89
2023/12/08 07:11:55;;;;;;;41.05;18.12;;;;;;;4.18;66.77;99486.94;4507962;31;33972;-89
2023/12/08 07:14:24;;;;;;;63.90;42.10;;;;;;;4.40;66.22;99492.19;4505607;31;33932;-89
2023/12/08 07:16:51;;;;;;;67.68;45.28;;;;;;;4.10;66.74;99494.31;4487157;31;34030;-88
2023/12/08 07:19:20;;;;;;;61.50;44.60;;;;;;;4.08;67.13;99501.91;4486056;31;32847;-87
2023/12/08 07:21:47;;;;;;;58.83;43.53;;;;;;;4.20;66.83;99495.56;4500904;31;33458;-87
2023/12/08 07:24:16;;;;;;;53.40;39.45;;;;;;;4.09;67.39;99496.00;4505400;31;33700;-87
2023/12/08 07:26:44;;;;;;;57.03;41.92;;;;;;;3.95;67.74;99498.78;4504604;31;34127;-87
2023/12/08 07:29:11;;;;;;;35.33;15.00;;;;;;;3.71;68.40;99494.28;4490187;31;33634;-88
2023/12/08 07:31:42;;;;;;;44.75;17.90;;;;;;;4.26;67.17;99477.88;4504972;31;34421;-86
2023/12/08 07:34:10;;;;;;;68.72;44.97;;;;;;;4.14;67.76;99497.06;4504995;31;34487;-87
2023/12/08 07:36:38;;;;;;;168.90;56.90;;;;;;;3.20;70.26;99491.09;4502799;31;34978;-87
2023/12/08 07:39:07;;;;;;;66.00;24.98;;;;;;;3.01;71.20;99485.91;4506505;31;34624;-88
2023/12/08 07:41:45;;;;;;;108.07;52.17;;;;;;;3.14;71.48;99476.31;4505925;31;33182;-87
2023/12/08 07:44:13;;;;;;;208.73;62.05;;;;;;;3.54;70.21;99473.00;4510012;31;33953;-83
2023/12/08 07:46:41;;;;;;;79.37;25.12;;;;;;;3.39;70.55;99475.75;4505115;31;36650;-86
2023/12/08 07:49:08;;;;;;;63.28;28.80;;;;;;;3.91;69.24;99472.09;4501649;31;34166;-87
2023/12/08 07:51:36;;;;;;;105.07;62.97;;;;;;;4.05;68.53;99488.06;4486800;31;33216;-86
2023/12/08 07:54:04;;;;;;;87.25;59.30;;;;;;;3.65;70.09;99494.00;4490168;31;33487;-89
2023/12/08 07:56:33;;;;;;;53.50;21.27;;;;;;;3.68;70.57;99499.28;4502746;31;33948;-87
2023/12/08 07:59:01;;;;;;;76.78;54.35;;;;;;;4.13;69.44;99494.44;4502452;31;34307;-86
2023/12/08 08:01:30;;;;;;;43.95;23.30;;;;;;;3.88;70.41;99501.03;4504267;31;33020;-87
2023/12/08 08:03:58;;;;;;;58.47;45.83;;;;;;;4.23;69.90;99495.69;4503203;31;33794;-86
2023/12/08 08:06:26;;;;;;;100.12;53.20;;;;;;;4.11;69.97;99493.47;4502584;31;33957;-85
2023/12/08 08:08:54;;;;;;;80.18;56.47;;;;;;;3.40;72.09;99492.88;4501085;31;33845;-88
2023/12/08 08:11:21;;;;;;;91.75;64.18;;;;;;;3.30;72.23;99495.84;4511072;31;33457;-88
2023/12/08 08:13:49;;;;;;;137.07;100.57;;;;;;;2.82;74.44;99499.50;4511399;31;33526;-88
2023/12/08 08:16:16;;;;;;;77.37;39.97;;;;;;;3.30;72.40;99488.16;4508317;31;33777;-88
2023/12/08 08:18:44;;;;;;;114.47;83.90;;;;;;;3.49;72.12;99486.44;4505345;31;34799;-86
2023/12/08 08:21:11;;;;;;;64.12;35.20;;;;;;;3.79;70.99;99492.06;4508374;31;34640;-90
2023/12/08 08:23:41;;;;;;;94.03;73.18;;;;;;;4.36;69.56;99486.03;4490473;31;32647;-87
2023/12/08 08:26:09;;;;;;;109.35;81.40;;;;;;;3.56;71.53;99488.44;4504967;31;34138;-87
2023/12/08 08:28:36;;;;;;;124.22;93.12;;;;;;;3.49;71.98;99487.31;4502467;31;34481;-87
2023/12/08 08:31:04;;;;;;;72.93;37.25;;;;;;;3.55;72.18;99495.28;4501105;31;34006;-86
2023/12/08 08:33:32;;;;;;;102.75;77.97;;;;;;;4.11;71.07;99490.91;4514769;31;34293;-87
2023/12/08 08:35:59;;;;;;;72.65;56.63;;;;;;;3.73;71.52;99497.81;4514567;31;33653;-87
2023/12/08 08:38:27;;;;;;;33.95;16.87;;;;;;;3.66;72.11;99486.38;4514854;31;33435;-87
2023/12/08 08:40:54;;;;;;;58.17;45.00;;;;;;;3.66;71.83;99481.25;4514662;31;33263;-87
2023/12/08 08:43:22;;;;;;;52.72;43.08;;;;;;;3.48;72.11;99482.97;4511808;31;34659;-88
2023/12/08 08:45:49;;;;;;;29.67;15.77;;;;;;;3.45;72.59;99480.31;4503196;31;34756;-88
2023/12/08 08:48:17;;;;;;;29.40;14.75;;;;;;;3.42;72.27;99481.03;4496516;31;33646;-87
2023/12/08 08:50:48;;;;;;;44.70;35.63;;;;;;;3.00;74.30;99458.53;4507191;31;33244;-87
2023/12/08 08:53:17;;;;;;;34.85;16.33;;;;;;;2.89;74.61;99447.78;4471637;31;32522;-88
2023/12/08 08:55:45;;;;;;;32.28;16.55;;;;;;;2.99;74.97;99464.44;4458783;31;33302;-88
2023/12/08 08:58:12;;;;;;;39.35;32.20;;;;;;;3.81;72.38;99490.44;4498949;31;34267;-88
2023/12/08 09:00:40;;;;;;;30.17;14.40;;;;;;;3.83;71.70;99510.22;4484570;31;34342;-88
2023/12/08 09:03:07;;;;;;;50.70;43.03;;;;;;;4.26;70.94;99508.66;4498768;31;33769;-88
2023/12/08 09:05:40;;;;;;;31.30;16.30;;;;;;;4.25;70.63;99505.22;4497507;31;33929;-88
2023/12/08 09:08:09;;;;;;;28.02;14.10;;;;;;;4.41;70.04;99505.87;4498704;31;34072;-88
2023/12/08 09:10:36;;;;;;;40.42;33.30;;;;;;;4.33;70.50;99519.28;4484550;31;32789;-88
2023/12/08 09:13:04;;;;;;;44.90;35.38;;;;;;;4.41;70.14;99511.03;4498819;31;33468;-88
2023/12/08 09:15:32;;;;;;;42.50;17.95;;;;;;;3.59;72.31;99503.97;4498630;31;34114;-88
2023/12/08 09:18:00;;;;;;;43.60;36.70;;;;;;;3.82;72.69;99493.06;4498600;31;33585;-88
2023/12/08 09:20:27;;;;;;;51.45;39.97;;;;;;;4.10;71.24;99486.59;4498702;31;33474;-88
2023/12/08 09:22:55;;;;;;;27.00;15.00;;;;;;;4.34;70.42;99489.34;4498471;31;33323;-88
2023/12/08 09:25:23;;;;;;;33.05;17.40;;;;;;;4.80;69.23;99483.53;4498618;31;34066;-88
2023/12/08 09:27:50;;;;;;;42.42;34.67;;;;;;;4.20;70.44;99473.34;4498679;31;34303;-88
2023/12/08 09:30:18;;;;;;;70.30;54.03;;;;;;;3.95;71.17;99473.13;4498440;31;33224;-88
2023/12/08 09:32:46;;;;;;;42.40;21.98;;;;;;;3.82;70.63;99477.69;4498499;31;33920;-88
2023/12/08 09:35:13;;;;;;;40.97;32.55;;;;;;;4.39;69.40;99473.34;4497595;31;34011;-88
2023/12/08 09:37:41;;;;;;;71.18;56.88;;;;;;;4.24;69.64;99475.22;4498593;31;33616;-88
2023/12/08 09:40:14;;;;;;;62.97;50.50;;;;;;;3.59;71.27;99475.78;4498947;31;33339;-88
2023/12/08 09:42:50;;;;;;;34.58;18.62;;;;;;;3.74;71.33;99462.78;4498618;31;33961;-89
2023/12/08 09:45:18;;;;;;;47.55;40.03;;;;;;;4.31;69.30;99459.28;4484331;31;34853;-88
2023/12/08 09:47:47;;;;;;;50.28;38.17;;;;;;;4.31;69.59;99458.41;4484000;31;33442;-88
2023/12/08 09:50:15;;;;;;;48.83;40.53;;;;;;;4.27;69.94;99444.56;4471214;31;32591;-88
2023/12/08 09:52:44;;;;;;;45.95;38.00;;;;;;;3.60;71.33;99450.22;4498485;31;33813;-88
2023/12/08 09:55:12;;;;;;;32.13;16.77;;;;;;;3.53;72.59;99443.06;4496929;31;34831;-89
2023/12/08 09:57:43;;;;;;;31.90;17.25;;;;;;;3.50;72.64;99455.75;4483384;31;34464;-89
2023/12/08 10:00:13;;;;;;;45.35;37.03;;;;;;;3.70;72.00;99450.63;4484435;31;33609;-88
2023/12/08 10:02:41;;;;;;;47.28;37.70;;;;;;;3.60;72.35;99439.09;4484215;31;34373;-89
2023/12/08 10:05:13;;;;;;;31.23;18.42;;;;;;;3.28;73.14;99447.88;4471654;31;33974;-89
2023/12/08 10:07:43;;;;;;;32.45;18.67;;;;;;;3.40;73.68;99448.44;4484361;31;33195;-88
2023/12/08 10:10:11;;;;;;;49.40;39.10;;;;;;;3.08;74.45;99449.53;4484137;31;33042;-89
2023/12/08 10:12:40;;;;;;;48.40;39.08;;;;;;;3.10;74.19;99440.22;4483942;31;34530;-88
2023/12/08 10:15:11;;;;;;;30.08;15.68;;;;;;;3.19;74.08;99445.78;4471071;31;33700;-88
2023/12/08 10:17:50;;;;;;;45.60;37.63;;;;;;;3.40;73.40;99440.75;4497833;31;34173;-88
2023/12/08 10:20:20;;;;;;;40.63;17.70;;;;;;;3.30;73.81;99436.03;4483586;31;33521;-89
2023/12/08 10:22:53;;;;;;;36.00;17.65;;;;;;;3.38;73.56;99432.13;4497863;31;33144;-89
2023/12/08 10:25:23;;;;;;;37.28;18.62;;;;;;;3.42;73.32;99429.75;4498050;31;34988;-88
2023/12/08 10:27:53;;;;;;;38.88;20.20;;;;;;;3.33;73.98;99434.50;4483860;31;33500;-88
2023/12/08 10:30:23;;;;;;;55.47;45.30;;;;;;;3.44;73.54;99428.94;4497757;31;34123;-89
2023/12/08 10:32:51;;;;;;;54.45;43.85;;;;;;;3.52;73.56;99420.78;4483699;31;33362;-89
2023/12/08 10:35:19;;;;;;;44.50;20.02;;;;;;;3.38;73.69;99433.00;4497838;31;35333;-89
2023/12/08 10:37:47;;;;;;;39.42;20.85;;;;;;;2.90;75.17;99427.34;4483348;31;33646;-88
2023/12/08 10:40:17;;;;;;;55.17;46.00;;;;;;;3.31;74.46;99422.41;4497872;31;33025;-89
2023/12/08 10:42:45;;;;;;;37.20;20.37;;;;;;;3.17;74.85;99421.75;4483317;31;33535;-89
2023/12/08 10:45:13;;;;;;;37.47;21.25;;;;;;;3.37;73.82;99431.25;4483374;31;34346;-88
2023/12/08 10:47:43;;;;;;;57.78;46.30;;;;;;;3.38;73.99;99432.13;4497607;31;33646;-88
2023/12/08 10:50:12;;;;;;;61.10;49.17;;;;;;;3.34;74.53;99423.41;4470473;31;33732;-88
2023/12/08 10:52:40;;;;;;;63.80;30.88;;;;;;;3.39;73.52;99419.38;4496355;31;33625;-88
2023/12/08 10:55:10;;;;;;;52.15;25.35;;;;;;;3.24;74.15;99420.38;4483111;31;33766;-88
2023/12/08 10:57:38;;;;;;;63.70;47.40;;;;;;;3.23;73.95;99422.06;4483210;31;33616;-88
2023/12/08 11:00:17;;;;;;;55.60;44.30;;;;;;;3.31;73.26;99419.84;4470137;31;33650;-88
2023/12/08 11:02:49;;;;;;;38.58;22.42;;;;;;;3.51;73.04;99402.78;4497294;31;33932;-88
2023/12/08 11:05:40;;;;;;;58.00;46.00;;;;;;;3.28;73.44;99402.62;4483326;31;33977;-88
2023/12/08 11:08:12;;;;;;;45.83;25.80;;;;;;;3.16;74.49;99404.66;4484432;31;33969;-88
2023/12/08 11:10:42;;;;;;;35.65;18.77;;;;;;;3.61;73.03;99394.69;4485780;31;32952;-88
2023/12/08 11:13:19;;;;;;;41.85;21.90;;;;;;;3.65;72.44;99401.72;4485111;31;33807;-88
2023/12/08 11:16:14;;;;;;;55.80;45.53;;;;;;;3.59;73.14;99398.87;4485195;31;34003;-88
2023/12/08 11:18:44;;;;;;;58.00;48.07;;;;;;;3.47;73.28;99395.78;4488509;31;33783;-88
2023/12/08 11:21:12;;;;;;;43.47;21.80;;;;;;;3.23;73.92;99404.13;4485427;31;33346;-89
2023/12/08 11:23:40;;;;;;;45.78;21.35;;;;;;;3.92;71.64;99388.34;4499631;31;33946;-88
2023/12/08 11:26:28;;;;;;;61.53;48.60;;;;;;;3.74;72.71;99391.84;4485174;31;34603;-88
2023/12/08 11:29:15;;;;;;;39.42;21.40;;;;;;;3.45;73.14;99377.78;4499518;31;33952;-88
2023/12/08 11:31:57;;;;;;;41.17;22.35;;;;;;;3.39;73.37;99382.63;4484919;31;32200;-88
2023/12/08 11:34:29;;;;;;;58.33;47.95;;;;;;;3.40;73.60;99374.97;4499545;31;34389;-88